Hagerhill, KY (41222)

7:57 PM EDT on July 24, 2014 (GMT -0400)
Paintsville, KY (KKYPAINT2) Elev 620 ft | 37.82 °N, 82.82 °W | Change Station

Current weather conditions updated 2 minutes ago

Mostly Cloudy
Mostly Cloudy
70.1 °F
Feels Like 70.1 °F
N
1.0
Wind Variable Wind from South
Gusts 3.0 mph

Tomorrow is forecast to be Much Warmer than today.

Today
High -- | Low -- °F
--% Chance of Precip.
Yesterday
High -- | Low -- °F
Precip. -- in
6:28 AM 8:46 PM
Waning Crescent, 3% visible
Pressure 30.03 in
Visibility 10.0 miles
Clouds Scattered Clouds 3500 ft
Mostly Cloudy 4400 ft
Overcast 5000 ft
Dew Point 65 °F
Humidity 85%
Rainfall 0.07 in
Snow Depth Not available.
UV 0.0 out of 12
Pollen .60 out of 12
Air Quality Not available.
Flu Activity Not available.
METAR KSJS 242335Z AUTO 00000KT 10SM SCT035 BKN044 OVC050 20/18 A3003 RMK AO2 T01980175

More Conditions Fewer Conditions

Pressure 30.03 in
Visibility 10.0 miles
Clouds Scattered Clouds 3500 ft
Mostly Cloudy 4400 ft
Overcast 5000 ft
Dew Point 65 °F
Humidity 85%
Rainfall 0.07 in
Snow Depth Not available.
UV 0.0 out of 12
Pollen .60 out of 12
Air Quality Not available.
Flu Activity Not available.
METAR KSJS 242335Z AUTO 00000KT 10SM SCT035 BKN044 OVC050 20/18 A3003 RMK AO2 T01980175

More Conditions Fewer Conditions

10-Day Weather Forecast

Almanac

Astronomy

Jul. 24, 2014 Rise Set
Actual Time 6:28 AM EDT 8:46 PM EDT
Civil Twilight 5:58 AM EDT 9:16 PM EDT
Nautical Twilight 5:21 AM EDT 9:53 PM EDT
Astronomical Twilight 4:41 AM EDT 10:33 PM EDT
Moon 4:34 AM EDT 7:01 PM EDT
Length of Visible Light 15h 18m
Length of Day
14h 18m
Tomorrow will be 1m 36s shorter.
Waning Crescent, 3% of the Moon is Illuminated
Today
Waning Crescent
Jul 26
New
Aug 3
First Quarter
Aug 10
Full
Aug 17
Last Quarter

Today's Extremes

State Highs State Lows

Community

WunderPhotos

Upload Photos

1,737,162 photos uploaded!

Nearby

Snow Depth

Station Depth Elevation
No new snow has been reported.

Earthquake Activity

City Distance Mag. Time & Date
No recent earthquake activity has been reported nearby.
Minimum magnitude displayed is 2.5.

Coastal Water Temperatures

Place Temperature
No Stations Reporting

Nearby Weather Stations

Station Location Temp. Dew Point Humidity Wind Precip. Elev Updated Type
Paintsville, KY, Paintsville, KY 70.1 °F 65 °F 85% South  at  1.0 mph 0.00 in / hr 620 ft 7:55 PM EDT Normal
Middle Creek Battlefield Area, Prestonsburg, KY 68.7 °F 63 °F 81% North  at  0.0 mph 0.00 in / hr 728 ft 7:57 PM EDT Rapid Fire
Middle Creek VFD Station 2, Prestonsburg, KY 70.2 °F 67 °F 90% North  at  0.0 mph - / hr 689 ft 7:48 PM EDT Normal

Show More Stations Show Fewer Stations